createdAt,value
2018-07-11T16:06:07.726Z,65.70
2018-07-11T16:08:51.793Z,67.30
2018-07-11T16:11:20.520Z,68.80
2018-07-11T16:13:49.226Z,69.10
2018-07-11T16:16:17.678Z,68.70
2018-07-11T16:18:46.157Z,69.40
2018-07-11T16:21:14.583Z,69.10
2018-07-11T16:23:43.000Z,68.60
2018-07-11T16:26:11.427Z,67.80
2018-07-11T16:28:40.624Z,67.80
2018-07-11T16:31:09.437Z,67.60
2018-07-11T16:36:06.043Z,64.00
2018-07-11T16:38:34.686Z,65.60
2018-07-11T16:41:03.101Z,65.30
2018-07-11T16:43:31.647Z,65.20
2018-07-11T16:46:00.074Z,65.50
2018-07-11T16:48:28.522Z,64.90
2018-07-11T16:50:58.664Z,64.50
2018-07-11T16:53:27.088Z,63.80
2018-07-11T16:55:56.380Z,63.60
2018-07-11T16:58:28.471Z,63.70
2018-07-11T17:00:56.864Z,62.90
2018-07-11T17:03:27.388Z,62.40
2018-07-11T17:06:06.813Z,62.10
2018-07-11T17:11:40.940Z,62.20
2018-07-11T17:14:09.425Z,62.40
2018-07-11T17:16:53.121Z,62.40
2018-07-11T17:19:30.031Z,63.10
2018-07-11T17:22:00.237Z,62.90
2018-07-11T17:26:58.361Z,62.70
2018-07-11T17:29:30.600Z,62.40
2018-07-11T17:32:07.437Z,62.40
2018-07-11T17:34:37.197Z,62.30
2018-07-11T17:37:06.894Z,62.40
2018-07-11T17:39:45.684Z,61.80
2018-07-11T17:42:16.191Z,61.90
2018-07-11T17:44:49.329Z,61.70
2018-07-11T17:47:19.166Z,62.10
2018-07-11T17:49:53.804Z,62.80
2018-07-11T17:52:24.013Z,67.60
2018-07-11T17:55:03.673Z,70.40
2018-07-11T17:57:36.836Z,71.40
2018-07-11T18:00:07.602Z,73.50
2018-07-11T18:02:42.152Z,73.60
2018-07-11T18:05:20.547Z,73.00
2018-07-11T18:07:50.324Z,74.20
2018-07-11T18:10:33.308Z,75.50
2018-07-11T18:13:09.769Z,74.70
2018-07-11T18:15:53.670Z,75.50
2018-07-11T18:18:33.457Z,76.80
2018-07-11T18:21:10.477Z,76.10
2018-07-11T18:23:50.245Z,76.50
2018-07-11T18:26:33.365Z,76.20
2018-07-11T18:31:16.455Z,75.20
2018-07-11T18:33:54.842Z,77.80
2018-07-11T18:36:34.204Z,80.70
2018-07-11T18:40:10.203Z,81.50
2018-07-11T18:42:45.614Z,82.20
2018-07-11T18:46:32.970Z,83.50
2018-07-11T18:51:24.075Z,85.10
2018-07-11T18:54:03.713Z,84.00
2018-07-11T18:57:08.108Z,85.10
2018-07-11T18:59:47.980Z,86.00
2018-07-11T19:04:30.794Z,84.40
2018-07-11T19:07:05.926Z,84.90
2018-07-11T19:09:42.917Z,83.10
2018-07-11T19:12:19.454Z,82.30
2018-07-11T19:14:54.444Z,80.70
2018-07-11T19:17:32.500Z,82.10
2018-07-11T19:20:14.299Z,83.50
2018-07-11T19:22:50.713Z,83.90
2018-07-11T19:25:55.685Z,84.70
2018-07-11T19:29:34.212Z,85.80
2018-07-11T19:32:09.824Z,85.40
2018-07-11T19:34:46.927Z,83.90
2018-07-11T19:38:27.045Z,83.40
2018-07-11T19:41:08.167Z,85.40
2018-07-11T19:43:45.880Z,82.60
2018-07-11T19:48:33.797Z,82.90
2018-07-11T19:53:16.468Z,82.50
2018-07-11T19:56:06.789Z,85.30
2018-07-11T19:58:35.200Z,84.50
2018-07-11T20:01:03.911Z,85.10
2018-07-11T20:03:32.312Z,84.70
2018-07-11T20:06:00.745Z,84.30
2018-07-11T20:08:29.163Z,85.00
2018-07-11T20:10:57.556Z,84.90
2018-07-11T20:13:26.009Z,85.60
2018-07-11T20:15:54.414Z,85.50
2018-07-11T20:18:22.885Z,86.00
2018-07-11T20:20:51.305Z,87.10
2018-07-11T20:23:19.740Z,86.50
2018-07-11T20:25:48.127Z,87.10
2018-07-11T20:28:16.798Z,86.30
2018-07-11T20:30:45.205Z,86.10
2018-07-11T20:33:13.619Z,87.00
2018-07-11T20:35:42.066Z,85.70
2018-07-11T20:38:11.071Z,84.90
2018-07-11T20:40:39.558Z,86.10
2018-07-11T20:43:07.985Z,85.60
2018-07-11T20:45:36.676Z,86.30
2018-07-11T20:48:05.108Z,86.00
2018-07-11T20:50:33.549Z,86.20
2018-07-11T20:53:02.032Z,85.50
2018-07-11T20:55:30.388Z,85.80
2018-07-11T20:58:10.042Z,85.60
2018-07-11T21:00:49.869Z,86.20
2018-07-11T21:03:45.576Z,86.00
2018-07-11T21:06:34.907Z,86.20
2018-07-11T21:09:21.228Z,86.50
2018-07-11T21:12:02.811Z,85.60
2018-07-11T21:15:43.487Z,85.00
2018-07-11T21:18:37.192Z,84.60
2018-07-11T21:21:05.613Z,85.40
2018-07-11T21:23:34.045Z,85.70
2018-07-11T21:26:02.441Z,85.70
2018-07-11T21:28:30.896Z,85.50
2018-07-11T21:30:59.294Z,84.60
2018-07-11T21:33:27.918Z,85.30
2018-07-11T21:35:56.350Z,85.20
2018-07-11T21:38:24.765Z,84.80
2018-07-11T21:40:53.429Z,85.20
2018-07-11T21:43:21.881Z,85.70
2018-07-11T21:45:50.321Z,86.00
2018-07-11T21:48:18.836Z,85.90
2018-07-11T21:50:47.377Z,85.20
2018-07-11T21:53:15.814Z,86.60
2018-07-11T21:55:44.225Z,87.00
2018-07-11T21:58:12.768Z,87.80
2018-07-11T22:00:41.776Z,87.80
2018-07-11T22:03:10.908Z,87.30
2018-07-11T22:05:39.303Z,87.60
2018-07-11T22:08:08.728Z,87.60
2018-07-11T22:10:38.797Z,87.60
2018-07-11T22:15:35.684Z,87.90
2018-07-11T22:18:16.094Z,87.40
2018-07-11T22:20:43.412Z,87.80
2018-07-11T22:23:10.732Z,87.40
2018-07-11T22:25:38.092Z,88.10
2018-07-11T22:28:05.395Z,87.90
2018-07-11T22:30:32.729Z,87.50
2018-07-11T22:33:00.044Z,87.60
2018-07-11T22:35:27.361Z,88.40
2018-07-11T22:37:54.688Z,88.10
2018-07-11T22:40:22.049Z,88.30
2018-07-11T22:42:49.707Z,87.20
2018-07-11T22:45:17.025Z,87.50
2018-07-11T22:47:44.340Z,88.60
2018-07-11T22:50:11.673Z,88.40
2018-07-11T22:52:39.054Z,89.40
2018-07-11T22:55:06.333Z,87.90
2018-07-11T22:57:33.638Z,88.10
2018-07-11T23:00:00.935Z,88.10
2018-07-11T23:02:28.274Z,87.50
2018-07-11T23:04:55.589Z,87.50
2018-07-11T23:07:22.937Z,87.60
2018-07-11T23:09:50.276Z,88.40
2018-07-11T23:12:17.600Z,87.70
2018-07-11T23:14:44.916Z,87.40
2018-07-11T23:17:12.231Z,87.10
2018-07-11T23:19:39.606Z,87.10
2018-07-11T23:22:06.906Z,87.20
2018-07-11T23:24:34.213Z,87.80
2018-07-11T23:27:01.528Z,87.40
2018-07-11T23:29:28.827Z,87.30
2018-07-11T23:31:56.174Z,87.00
2018-07-11T23:34:23.489Z,87.80
2018-07-11T23:36:50.817Z,87.60
2018-07-11T23:39:18.128Z,87.30
2018-07-11T23:41:45.440Z,86.70
2018-07-11T23:44:12.965Z,86.90
2018-07-11T23:46:40.279Z,87.40
2018-07-11T23:49:07.581Z,87.00
2018-07-11T23:51:34.905Z,87.10
2018-07-11T23:54:02.218Z,87.30
2018-07-11T23:56:29.516Z,87.10
2018-07-11T23:58:56.848Z,86.70
